sensor_id;sensor_type;location;lat;lon;timestamp;pressure;altitude;pressure_sealevel;temperature;humidity
11643;BME280;5877;50.930;6.918;2023-08-31T01:11:29;100299.44;;;13.61;94.41
11643;BME280;5877;50.930;6.918;2023-08-31T05:57:22;100437.19;;;17.74;62.51
11643;BME280;5877;50.930;6.918;2023-08-31T06:02:15;100428.19;;;20.14;53.37
11643;BME280;5877;50.930;6.918;2023-08-31T06:07:23;100445.88;;;21.11;50.43
11643;BME280;5877;50.930;6.918;2023-08-31T06:12:18;100439.53;;;21.87;48.03
11643;BME280;5877;50.930;6.918;2023-08-31T06:17:10;100411.94;;;22.97;44.77
11643;BME280;5877;50.930;6.918;2023-08-31T06:22:04;100440.50;;;24.64;41.55
11643;BME280;5877;50.930;6.918;2023-08-31T06:27:00;100443.91;;;25.52;40.18
11643;BME280;5877;50.930;6.918;2023-08-31T06:31:54;100350.00;;;25.30;38.95
11643;BME280;5877;50.930;6.918;2023-08-31T06:36:46;100454.16;;;26.19;38.13
11643;BME280;5877;50.930;6.918;2023-08-31T06:41:39;100433.16;;;27.27;36.56
11643;BME280;5877;50.930;6.918;2023-08-31T06:46:31;100451.69;;;27.91;35.33
11643;BME280;5877;50.930;6.918;2023-08-31T06:51:32;100451.31;;;28.13;34.79
11643;BME280;5877;50.930;6.918;2023-08-31T06:56:25;100445.44;;;28.81;33.88
11643;BME280;5877;50.930;6.918;2023-08-31T07:01:18;100432.81;;;29.46;32.51
11643;BME280;5877;50.930;6.918;2023-08-31T07:06:11;100431.50;;;29.03;33.21
11643;BME280;5877;50.930;6.918;2023-08-31T07:11:06;100416.63;;;30.33;31.12
11643;BME280;5877;50.930;6.918;2023-08-31T07:15:58;100439.53;;;30.67;30.46
11643;BME280;5877;50.930;6.918;2023-08-31T07:20:50;100455.25;;;30.77;30.61
11643;BME280;5877;50.930;6.918;2023-08-31T07:25:43;100461.19;;;30.83;30.32
11643;BME280;5877;50.930;6.918;2023-08-31T07:30:37;100431.34;;;30.98;29.68
11643;BME280;5877;50.930;6.918;2023-08-31T07:35:30;100447.34;;;31.77;29.53
11643;BME280;5877;50.930;6.918;2023-08-31T07:40:22;100456.13;;;31.90;28.86
11643;BME280;5877;50.930;6.918;2023-08-31T07:45:14;100459.22;;;31.88;28.67
11643;BME280;5877;50.930;6.918;2023-08-31T07:50:08;100447.59;;;31.33;29.37
11643;BME280;5877;50.930;6.918;2023-08-31T07:55:01;100445.38;;;30.85;29.49
11643;BME280;5877;50.930;6.918;2023-08-31T07:59:57;100491.50;;;27.23;35.54
11643;BME280;5877;50.930;6.918;2023-08-31T08:04:49;100470.44;;;26.23;37.31
11643;BME280;5877;50.930;6.918;2023-08-31T08:09:44;100506.50;;;25.44;38.76
11643;BME280;5877;50.930;6.918;2023-08-31T08:14:36;100505.84;;;24.59;40.88
11643;BME280;5877;50.930;6.918;2023-08-31T08:19:32;100517.56;;;24.18;41.73
11643;BME280;5877;50.930;6.918;2023-08-31T08:24:25;100459.06;;;25.39;38.84
11643;BME280;5877;50.930;6.918;2023-08-31T08:29:19;100408.19;;;28.25;33.22
11643;BME280;5877;50.930;6.918;2023-08-31T08:34:12;100392.03;;;29.26;31.08
11643;BME280;5877;50.930;6.918;2023-08-31T08:39:05;100492.97;;;30.39;30.19
11643;BME280;5877;50.930;6.918;2023-08-31T08:44:01;100510.00;;;31.33;29.04
11643;BME280;5877;50.930;6.918;2023-08-31T08:49:01;100505.84;;;31.05;29.24
11643;BME280;5877;50.930;6.918;2023-08-31T08:53:58;100451.47;;;30.50;29.39
11643;BME280;5877;50.930;6.918;2023-08-31T08:58:55;100458.84;;;30.81;28.57
11643;BME280;5877;50.930;6.918;2023-08-31T09:03:48;100503.03;;;27.82;32.70
11643;BME280;5877;50.930;6.918;2023-08-31T09:08:42;100535.34;;;26.04;36.09
11643;BME280;5877;50.930;6.918;2023-08-31T09:13:36;100478.38;;;25.41;37.42
11643;BME280;5877;50.930;6.918;2023-08-31T09:18:33;100520.03;;;26.85;35.79
11643;BME280;5877;50.930;6.918;2023-08-31T09:23:30;100507.69;;;28.72;32.33
11643;BME280;5877;50.930;6.918;2023-08-31T09:28:27;100474.63;;;28.99;31.42
11643;BME280;5877;50.930;6.918;2023-08-31T09:33:20;100493.94;;;29.62;30.38
11643;BME280;5877;50.930;6.918;2023-08-31T09:38:14;100423.63;;;29.10;30.21
11643;BME280;5877;50.930;6.918;2023-08-31T09:43:09;100447.03;;;28.69;30.67
11643;BME280;5877;50.930;6.918;2023-08-31T09:48:03;100532.13;;;28.75;31.20
11643;BME280;5877;50.930;6.918;2023-08-31T09:53:01;100533.63;;;28.28;32.16
11643;BME280;5877;50.930;6.918;2023-08-31T09:57:57;100457.47;;;27.39;32.51
11643;BME280;5877;50.930;6.918;2023-08-31T10:03:07;100517.22;;;27.20;33.74
11643;BME280;5877;50.930;6.918;2023-08-31T10:08:01;100533.13;;;26.96;33.00
11643;BME280;5877;50.930;6.918;2023-08-31T10:12:54;100488.03;;;26.37;33.18
11643;BME280;5877;50.930;6.918;2023-08-31T10:17:51;100542.84;;;26.97;33.69
11643;BME280;5877;50.930;6.918;2023-08-31T10:22:43;100506.66;;;26.51;33.76
11643;BME280;5877;50.930;6.918;2023-08-31T10:27:40;100512.28;;;25.85;35.38
11643;BME280;5877;50.930;6.918;2023-08-31T10:32:32;100480.19;;;25.06;36.16
11643;BME280;5877;50.930;6.918;2023-08-31T10:37:27;100509.63;;;25.29;34.60
11643;BME280;5877;50.930;6.918;2023-08-31T10:42:23;100504.91;;;25.34;34.23
11643;BME280;5877;50.930;6.918;2023-08-31T10:47:18;100440.25;;;25.22;34.12
11643;BME280;5877;50.930;6.918;2023-08-31T10:52:18;100552.00;;;25.32;35.69
11643;BME280;5877;50.930;6.918;2023-08-31T10:57:36;100527.66;;;25.28;37.13
11643;BME280;5877;50.930;6.918;2023-08-31T11:07:27;100523.81;;;25.86;36.20
11643;BME280;5877;50.930;6.918;2023-08-31T11:12:22;100522.72;;;25.78;35.35
11643;BME280;5877;50.930;6.918;2023-08-31T11:17:16;100525.41;;;25.87;35.08
11643;BME280;5877;50.930;6.918;2023-08-31T11:22:09;100462.94;;;25.81;35.64
11643;BME280;5877;50.930;6.918;2023-08-31T11:27:02;100503.66;;;25.40;36.29
11643;BME280;5877;50.930;6.918;2023-08-31T11:32:01;100512.38;;;24.98;38.20
11643;BME280;5877;50.930;6.918;2023-08-31T11:36:55;100526.34;;;24.33;40.20
11643;BME280;5877;50.930;6.918;2023-08-31T11:41:49;100406.81;;;22.27;43.46
11643;BME280;5877;50.930;6.918;2023-08-31T11:46:43;100549.88;;;22.95;44.30
11643;BME280;5877;50.930;6.918;2023-08-31T11:51:39;100371.19;;;21.29;45.00
11643;BME280;5877;50.930;6.918;2023-08-31T11:56:44;100548.50;;;22.14;44.41
11643;BME280;5877;50.930;6.918;2023-08-31T12:01:43;100244.16;;;20.29;42.70
11643;BME280;5877;50.930;6.918;2023-08-31T12:06:37;100503.41;;;22.72;42.20
11643;BME280;5877;50.930;6.918;2023-08-31T12:11:31;100526.03;;;23.48;40.35
11643;BME280;5877;50.930;6.918;2023-08-31T12:16:32;100498.16;;;23.63;39.96
11643;BME280;5877;50.930;6.918;2023-08-31T12:21:32;100493.09;;;24.20;39.42
11643;BME280;5877;50.930;6.918;2023-08-31T12:26:29;100427.59;;;23.90;40.44
11643;BME280;5877;50.930;6.918;2023-08-31T12:31:24;100542.06;;;24.70;41.20
11643;BME280;5877;50.930;6.918;2023-08-31T12:36:17;100471.06;;;23.64;41.11
11643;BME280;5877;50.930;6.918;2023-08-31T12:41:14;100463.09;;;22.82;40.54
11643;BME280;5877;50.930;6.918;2023-08-31T12:46:12;100419.44;;;22.41;39.41
11643;BME280;5877;50.930;6.918;2023-08-31T12:51:05;100516.75;;;23.32;39.11
11643;BME280;5877;50.930;6.918;2023-08-31T12:56:02;100505.19;;;23.73;39.29
11643;BME280;5877;50.930;6.918;2023-08-31T13:00:58;100489.81;;;24.23;37.84
11643;BME280;5877;50.930;6.918;2023-08-31T13:05:51;100310.50;;;24.08;36.44
11643;BME280;5877;50.930;6.918;2023-08-31T13:10:52;100349.06;;;25.26;35.02
11643;BME280;5877;50.930;6.918;2023-08-31T13:15:47;100498.50;;;25.96;35.88
11643;BME280;5877;50.930;6.918;2023-08-31T13:20:40;100439.47;;;24.20;38.97
11643;BME280;5877;50.930;6.918;2023-08-31T13:25:32;100498.03;;;24.04;40.45
11643;BME280;5877;50.930;6.918;2023-08-31T13:30:27;100434.84;;;23.53;41.46
11643;BME280;5877;50.930;6.918;2023-08-31T13:35:25;100445.44;;;23.36;41.17
11643;BME280;5877;50.930;6.918;2023-08-31T13:40:19;100514.94;;;23.41;42.87
11643;BME280;5877;50.930;6.918;2023-08-31T13:45:12;100492.34;;;22.92;43.11
11643;BME280;5877;50.930;6.918;2023-08-31T13:50:06;100516.13;;;23.49;42.22
11643;BME280;5877;50.930;6.918;2023-08-31T13:55:00;100479.38;;;23.77;40.89
11643;BME280;5877;50.930;6.918;2023-08-31T13:59:53;100443.53;;;24.17;38.77
11643;BME280;5877;50.930;6.918;2023-08-31T14:04:46;100459.56;;;24.93;38.16
11643;BME280;5877;50.930;6.918;2023-08-31T14:09:38;100469.41;;;24.36;39.70
11643;BME280;5877;50.930;6.918;2023-08-31T14:14:31;100481.94;;;24.04;40.74
11643;BME280;5877;50.930;6.918;2023-08-31T14:19:25;100491.41;;;23.66;41.25
11643;BME280;5877;50.930;6.918;2023-08-31T14:24:20;100487.19;;;23.23;42.37
11643;BME280;5877;50.930;6.918;2023-08-31T14:29:14;100498.34;;;23.53;41.86
11643;BME280;5877;50.930;6.918;2023-08-31T14:34:08;100479.84;;;23.79;40.89
11643;BME280;5877;50.930;6.918;2023-08-31T14:39:00;100453.53;;;24.03;39.55
11643;BME280;5877;50.930;6.918;2023-08-31T14:43:53;100508.91;;;24.44;38.96
11643;BME280;5877;50.930;6.918;2023-08-31T14:48:46;100508.81;;;24.26;39.25
11643;BME280;5877;50.930;6.918;2023-08-31T14:53:41;100512.78;;;24.15;39.67
11643;BME280;5877;50.930;6.918;2023-08-31T14:58:36;100524.84;;;24.04;39.89
11643;BME280;5877;50.930;6.918;2023-08-31T15:03:33;100534.13;;;24.20;38.56
11643;BME280;5877;50.930;6.918;2023-08-31T15:08:37;100534.28;;;24.38;38.15
11643;BME280;5877;50.930;6.918;2023-08-31T15:13:30;100495.22;;;24.09;38.47
11643;BME280;5877;50.930;6.918;2023-08-31T15:18:29;100477.59;;;24.31;37.47
11643;BME280;5877;50.930;6.918;2023-08-31T15:23:23;100448.66;;;23.83;38.12
11643;BME280;5877;50.930;6.918;2023-08-31T15:28:18;100538.63;;;24.11;38.92
11643;BME280;5877;50.930;6.918;2023-08-31T15:33:11;100529.16;;;24.27;38.54
11643;BME280;5877;50.930;6.918;2023-08-31T15:38:06;100550.47;;;24.10;38.86
11643;BME280;5877;50.930;6.918;2023-08-31T15:43:00;100481.75;;;23.15;39.20
11643;BME280;5877;50.930;6.918;2023-08-31T15:47:54;100518.44;;;23.01;40.05
11643;BME280;5877;50.930;6.918;2023-08-31T15:52:49;100493.09;;;22.33;40.67
11643;BME280;5877;50.930;6.918;2023-08-31T15:57:44;100540.91;;;22.53;41.26
11643;BME280;5877;50.930;6.918;2023-08-31T16:02:41;100519.38;;;22.45;41.46
11643;BME280;5877;50.930;6.918;2023-08-31T16:07:48;100554.06;;;23.15;41.10
11643;BME280;5877;50.930;6.918;2023-08-31T16:12:59;100485.22;;;22.42;41.21
11643;BME280;5877;50.930;6.918;2023-08-31T16:17:55;100412.38;;;21.80;41.90
11643;BME280;5877;50.930;6.918;2023-08-31T16:22:48;100413.63;;;21.31;42.75
11643;BME280;5877;50.930;6.918;2023-08-31T16:27:41;100299.22;;;20.82;43.33
11643;BME280;5877;50.930;6.918;2023-08-31T16:32:35;100428.13;;;21.25;43.86
11643;BME280;5877;50.930;6.918;2023-08-31T16:37:42;100479.28;;;21.32;44.13
11643;BME280;5877;50.930;6.918;2023-08-31T16:42:41;100366.75;;;20.58;44.50
11643;BME280;5877;50.930;6.918;2023-08-31T16:47:50;100428.34;;;20.81;44.92
11643;BME280;5877;50.930;6.918;2023-08-31T16:52:46;100365.03;;;20.15;45.56
11643;BME280;5877;50.930;6.918;2023-08-31T16:57:41;100542.66;;;21.21;46.25
11643;BME280;5877;50.930;6.918;2023-08-31T17:02:34;100558.13;;;21.24;46.15
11643;BME280;5877;50.930;6.918;2023-08-31T17:07:30;100480.13;;;20.56;47.01
11643;BME280;5877;50.930;6.918;2023-08-31T17:12:24;100536.59;;;20.63;47.98
11643;BME280;5877;50.930;6.918;2023-08-31T17:17:37;100533.63;;;20.64;47.87
11643;BME280;5877;50.930;6.918;2023-08-31T17:22:45;100472.53;;;20.00;48.27
11643;BME280;5877;50.930;6.918;2023-08-31T17:27:39;100419.31;;;19.45;48.81
11643;BME280;5877;50.930;6.918;2023-08-31T17:32:31;100509.91;;;19.90;48.85
11643;BME280;5877;50.930;6.918;2023-08-31T17:37:24;100576.19;;;19.96;49.89
11643;BME280;5877;50.930;6.918;2023-08-31T17:42:17;100552.94;;;19.58;49.94
11643;BME280;5877;50.930;6.918;2023-08-31T17:47:10;100561.50;;;19.39;50.96
11643;BME280;5877;50.930;6.918;2023-08-31T17:52:34;100581.44;;;19.52;50.61
11643;BME280;5877;50.930;6.918;2023-08-31T17:58:09;100576.91;;;19.53;50.97
11643;BME280;5877;50.930;6.918;2023-08-31T18:08:34;100561.84;;;18.97;51.51
11643;BME280;5877;50.930;6.918;2023-08-31T18:13:36;100531.03;;;18.76;52.13
11643;BME280;5877;50.930;6.918;2023-08-31T18:18:39;100511.34;;;18.46;52.58
11643;BME280;5877;50.930;6.918;2023-08-31T18:23:34;100435.31;;;17.74;52.98
11643;BME280;5877;50.930;6.918;2023-08-31T18:28:30;100571.41;;;18.53;53.40
11643;BME280;5877;50.930;6.918;2023-08-31T18:33:29;100605.97;;;18.53;54.24
11643;BME280;5877;50.930;6.918;2023-08-31T18:38:29;100622.41;;;18.39;54.79
11643;BME280;5877;50.930;6.918;2023-08-31T18:43:24;100551.88;;;17.76;55.70
11643;BME280;5877;50.930;6.918;2023-08-31T18:48:21;100526.47;;;17.38;55.90
11643;BME280;5877;50.930;6.918;2023-08-31T18:53:14;100630.22;;;17.83;56.58
11643;BME280;5877;50.930;6.918;2023-08-31T18:58:07;100600.47;;;17.34;57.81
11643;BME280;5877;50.930;6.918;2023-08-31T19:02:59;100578.81;;;17.05;58.33
11643;BME280;5877;50.930;6.918;2023-08-31T19:07:56;100551.53;;;16.73;58.85
11643;BME280;5877;50.930;6.918;2023-08-31T19:12:50;100589.78;;;16.82;59.62
11643;BME280;5877;50.930;6.918;2023-08-31T19:17:47;100634.94;;;16.92;60.01
11643;BME280;5877;50.930;6.918;2023-08-31T19:22:44;100657.44;;;16.90;60.32
11643;BME280;5877;50.930;6.918;2023-08-31T19:27:39;100667.66;;;16.76;60.90
11643;BME280;5877;50.930;6.918;2023-08-31T19:32:41;100652.88;;;16.58;61.48
11643;BME280;5877;50.930;6.918;2023-08-31T19:37:39;100650.97;;;16.53;61.35
11643;BME280;5877;50.930;6.918;2023-08-31T19:42:52;100665.66;;;16.39;62.14
11643;BME280;5877;50.930;6.918;2023-08-31T19:48:04;100641.59;;;16.19;62.47
11643;BME280;5877;50.930;6.918;2023-08-31T19:53:05;100587.53;;;15.71;62.81
11643;BME280;5877;50.930;6.918;2023-08-31T19:58:21;100673.88;;;16.16;63.17
11643;BME280;5877;50.930;6.918;2023-08-31T20:03:20;100674.84;;;16.10;63.46
11643;BME280;5877;50.930;6.918;2023-08-31T20:08:28;100630.19;;;15.75;63.90
11643;BME280;5877;50.930;6.918;2023-08-31T20:13:42;100673.84;;;15.94;64.91
11643;BME280;5877;50.930;6.918;2023-08-31T20:19:25;100666.34;;;15.86;66.09
11643;BME280;5877;50.930;6.918;2023-08-31T20:24:48;100641.66;;;15.58;67.14
11643;BME280;5877;50.930;6.918;2023-08-31T20:29:54;100461.25;;;14.29;67.42
11643;BME280;5877;50.930;6.918;2023-08-31T20:34:48;100552.13;;;14.78;67.65
11643;BME280;5877;50.930;6.918;2023-08-31T20:46:48;100676.91;;;15.31;69.65
11643;BME280;5877;50.930;6.918;2023-08-31T20:52:50;100633.56;;;14.98;70.99
11643;BME280;5877;50.930;6.918;2023-08-31T21:10:25;100458.66;;;13.72;72.88
11643;BME280;5877;50.930;6.918;2023-08-31T21:55:17;100607.22;;;14.70;78.75
11643;BME280;5877;50.930;6.918;2023-08-31T22:19:01;100563.66;;;14.89;71.26
11643;BME280;5877;50.930;6.918;2023-08-31T22:30:45;100606.38;;;15.36;70.57
11643;BME280;5877;50.930;6.918;2023-08-31T22:36:54;100357.88;;;13.70;70.77
11643;BME280;5877;50.930;6.918;2023-08-31T22:41:52;100507.25;;;15.00;70.19
11643;BME280;5877;50.930;6.918;2023-08-31T22:46:50;100603.72;;;15.53;70.74
11643;BME280;5877;50.930;6.918;2023-08-31T22:52:09;100653.91;;;15.86;70.93
11643;BME280;5877;50.930;6.918;2023-08-31T22:57:05;100598.34;;;15.48;70.98
11643;BME280;5877;50.930;6.918;2023-08-31T23:02:14;100650.53;;;15.91;71.36
11643;BME280;5877;50.930;6.918;2023-08-31T23:13:59;100479.09;;;14.89;71.64
11643;BME280;5877;50.930;6.918;2023-08-31T23:19:01;100561.91;;;15.33;72.88
11643;BME280;5877;50.930;6.918;2023-08-31T23:23:55;100583.09;;;15.55;72.96
11643;BME280;5877;50.930;6.918;2023-08-31T23:34:50;100456.41;;;14.93;73.84
11643;BME280;5877;50.930;6.918;2023-08-31T23:39:47;100615.06;;;15.92;75.60
11643;BME280;5877;50.930;6.918;2023-08-31T23:44:47;100342.91;;;14.26;76.36
11643;BME280;5877;50.930;6.918;2023-08-31T23:49:45;100456.00;;;15.01;76.44
11643;BME280;5877;50.930;6.918;2023-08-31T23:54:41;100551.06;;;15.73;76.95
11643;BME280;5877;50.930;6.918;2023-08-31T23:59:34;100558.31;;;15.83;76.49
